Time;durP1;ratioP1;P1;durP2;ratioP2;P2;SDS_P1;SDS_P2;PMS_P1;PMS_P2;Temp;Humidity;BMP_temperature;BMP_pressure;BME280_temperature;BME280_humidity;BME280_pressure;Samples;Min_cycle;Max_cycle;Signal;HPM_P1;HPM_P2
2024/04/20 00:01:33;;;;;;;8.53;4.85;;;;;;;4.12;94.97;100082.39;1809071;78;21040;-70
2024/04/20 00:04:01;;;;;;;6.47;4.37;;;;;;;4.07;95.13;100080.17;1809142;78;21059;-70
2024/04/20 00:06:30;;;;;;;9.43;4.87;;;;;;;4.04;95.27;100076.94;1809289;79;21036;-69
2024/04/20 00:09:00;;;;;;;8.43;4.75;;;;;;;4.01;95.42;100082.18;1808956;78;21040;-70
2024/04/20 00:11:28;;;;;;;7.65;4.55;;;;;;;3.96;95.52;100083.17;1809206;79;20997;-71
2024/04/20 00:13:57;;;;;;;7.55;4.67;;;;;;;3.93;95.56;100087.57;1809329;79;21029;-69
2024/04/20 00:16:25;;;;;;;7.03;4.55;;;;;;;3.89;95.76;100090.23;1809302;79;21028;-69
2024/04/20 00:18:53;;;;;;;6.35;4.10;;;;;;;3.85;95.86;100093.42;1809113;79;21057;-69
2024/04/20 00:21:21;;;;;;;9.90;4.58;;;;;;;3.79;96.01;100095.77;1809079;79;21025;-69
2024/04/20 00:23:50;;;;;;;6.10;4.12;;;;;;;3.78;96.14;100090.52;1809109;79;21032;-69
2024/04/20 00:26:19;;;;;;;7.00;4.42;;;;;;;3.78;96.35;100106.77;1809055;79;21473;-69
2024/04/20 00:28:47;;;;;;;7.28;4.30;;;;;;;3.76;96.51;100099.31;1809183;78;21096;-68
2024/04/20 00:31:15;;;;;;;8.53;5.17;;;;;;;3.73;96.58;100103.19;1809111;78;21080;-68
2024/04/20 00:33:44;;;;;;;7.92;4.60;;;;;;;3.74;96.73;100106.75;1809134;79;21063;-69
2024/04/20 00:36:13;;;;;;;9.75;4.72;;;;;;;3.74;96.84;100107.60;1809068;79;21472;-69
2024/04/20 00:38:41;;;;;;;7.58;5.05;;;;;;;3.75;96.91;100112.52;1770550;80;21124;-68
2024/04/20 00:41:12;;;;;;;9.55;5.37;;;;;;;3.74;97.07;100113.02;1792682;80;21053;-68
2024/04/20 00:43:40;;;;;;;13.40;5.80;;;;;;;3.73;97.05;100124.87;1792829;79;21013;-70
2024/04/20 00:46:09;;;;;;;13.03;6.53;;;;;;;3.72;97.05;100127.73;1792864;80;21026;-69
2024/04/20 00:48:37;;;;;;;13.83;6.53;;;;;;;3.68;97.07;100122.30;1792769;79;21061;-69
2024/04/20 00:51:06;;;;;;;10.82;6.60;;;;;;;3.66;97.22;100125.67;1792758;78;21041;-69
2024/04/20 00:53:34;;;;;;;9.90;6.45;;;;;;;3.64;97.38;100124.98;1792724;80;21030;-69
2024/04/20 00:56:02;;;;;;;9.43;6.20;;;;;;;3.62;97.39;100125.64;1792928;78;21013;-69
2024/04/20 00:58:31;;;;;;;8.33;5.97;;;;;;;3.60;97.47;100128.52;1792865;80;21060;-69
2024/04/20 01:00:59;;;;;;;10.08;5.37;;;;;;;3.61;97.55;100121.23;1792745;80;21553;-68
2024/04/20 01:03:28;;;;;;;9.93;5.17;;;;;;;3.61;97.70;100126.15;1792877;78;21060;-70
2024/04/20 01:05:58;;;;;;;8.20;4.92;;;;;;;3.62;97.87;100119.72;1792730;79;21037;-68
2024/04/20 01:08:26;;;;;;;7.75;4.47;;;;;;;3.61;97.83;100128.86;1793108;78;21041;-68
2024/04/20 01:10:54;;;;;;;8.00;5.20;;;;;;;3.60;97.92;100126.31;1792767;80;21017;-70
2024/04/20 01:13:29;;;;;;;9.50;5.08;;;;;;;3.60;97.92;100127.66;1793024;78;21021;-68
2024/04/20 01:15:57;;;;;;;8.03;4.42;;;;;;;3.58;98.00;100126.47;1792982;80;21079;-69
2024/04/20 01:18:26;;;;;;;8.05;5.12;;;;;;;3.57;98.06;100127.48;1792681;78;21057;-69
2024/04/20 01:20:55;;;;;;;8.35;5.10;;;;;;;3.58;98.18;100129.68;1792713;80;21034;-70
2024/04/20 01:23:23;;;;;;;8.00;4.65;;;;;;;3.57;98.30;100132.05;1792910;80;20990;-70
2024/04/20 01:25:51;;;;;;;7.65;4.90;;;;;;;3.56;98.38;100131.70;1793016;80;21072;-69
2024/04/20 01:28:20;;;;;;;9.78;4.58;;;;;;;3.56;98.30;100139.83;1792935;78;21001;-68
2024/04/20 01:30:48;;;;;;;8.55;5.08;;;;;;;3.54;98.35;100133.72;1792708;79;21418;-70
2024/04/20 01:33:18;;;;;;;8.15;4.80;;;;;;;3.52;98.33;100133.03;1792774;79;21029;-69
2024/04/20 01:35:47;;;;;;;10.25;5.47;;;;;;;3.47;98.40;100134.35;1792909;80;21049;-69
2024/04/20 01:38:16;;;;;;;10.03;5.15;;;;;;;3.45;98.52;100136.88;1789995;79;21041;-69
2024/04/20 01:40:44;;;;;;;11.35;5.47;;;;;;;3.44;98.56;100140.59;1787354;80;21045;-70
2024/04/20 01:43:12;;;;;;;7.20;4.40;;;;;;;3.45;98.66;100139.08;1787394;79;21050;-69
2024/04/20 01:45:41;;;;;;;11.00;4.70;;;;;;;3.45;98.70;100143.14;1787476;79;21088;-67
2024/04/20 01:48:09;;;;;;;10.08;5.28;;;;;;;3.44;98.60;100145.50;1787704;80;21002;-69
2024/04/20 01:50:37;;;;;;;10.68;4.92;;;;;;;3.41;98.62;100144.47;1787686;80;21418;-69
2024/04/20 01:53:06;;;;;;;9.63;5.00;;;;;;;3.38;98.52;100146.14;1787574;80;21006;-68
2024/04/20 01:55:34;;;;;;;12.58;5.33;;;;;;;3.37;98.56;100157.12;1787509;80;20967;-70
2024/04/20 01:58:02;;;;;;;11.22;5.67;;;;;;;3.38;98.64;100159.67;1787441;80;21025;-70
2024/04/20 02:00:31;;;;;;;11.40;5.62;;;;;;;3.36;98.55;100155.42;1787436;80;21045;-70
2024/04/20 02:02:59;;;;;;;15.05;6.70;;;;;;;3.31;98.39;100154.55;1787521;80;21013;-70
2024/04/20 02:05:28;;;;;;;15.05;6.95;;;;;;;3.27;98.33;100157.72;1787518;80;21018;-68
2024/04/20 02:07:56;;;;;;;17.48;7.70;;;;;;;3.26;98.31;100157.38;1787577;79;21326;-69
2024/04/20 02:10:24;;;;;;;19.32;8.10;;;;;;;3.27;98.25;100162.63;1787540;79;21061;-70
2024/04/20 02:12:53;;;;;;;26.97;9.88;;;;;;;3.25;98.07;100158.35;1787484;79;21053;-70
2024/04/20 02:15:21;;;;;;;29.63;10.90;;;;;;;3.23;98.15;100159.02;1787450;79;21042;-68
2024/04/20 02:17:49;;;;;;;28.90;10.30;;;;;;;3.21;98.18;100153.75;1787460;80;21462;-70
2024/04/20 02:20:17;;;;;;;30.20;10.85;;;;;;;3.19;98.14;100157.12;1787457;80;21042;-69
2024/04/20 02:22:46;;;;;;;35.15;10.98;;;;;;;3.18;98.22;100162.19;1787535;79;21045;-70
2024/04/20 02:25:14;;;;;;;29.90;9.73;;;;;;;3.16;98.13;100158.28;1787393;79;21042;-69
2024/04/20 02:27:42;;;;;;;24.02;8.65;;;;;;;3.12;98.03;100157.40;1787396;80;21053;-69
2024/04/20 02:30:11;;;;;;;22.48;8.73;;;;;;;3.09;98.08;100150.94;1787272;80;21037;-70
2024/04/20 02:32:39;;;;;;;22.95;8.40;;;;;;;3.09;98.12;100157.20;1787420;80;21449;-70
2024/04/20 02:35:08;;;;;;;20.17;9.88;;;;;;;3.07;97.91;100157.02;1787466;79;21014;-69
2024/04/20 02:37:37;;;;;;;25.72;7.70;;;;;;;3.06;97.98;100158.02;1789754;79;21442;-70
2024/04/20 02:40:09;;;;;;;13.10;6.20;;;;;;;3.09;98.13;100159.06;1809022;78;21025;-68
2024/04/20 02:42:38;;;;;;;16.93;6.50;;;;;;;3.06;98.12;100163.44;1809142;79;21025;-70
2024/04/20 02:45:10;;;;;;;14.05;5.95;;;;;;;3.04;98.17;100158.68;1809128;79;20993;-69
2024/04/20 02:47:38;;;;;;;14.78;6.40;;;;;;;3.00;98.16;100157.29;1809001;79;21076;-68
2024/04/20 02:50:07;;;;;;;11.95;6.50;;;;;;;3.01;98.35;100160.34;1809131;79;21040;-69
2024/04/20 02:52:35;;;;;;;15.48;5.62;;;;;;;3.00;98.39;100165.41;1809085;79;21093;-69
2024/04/20 02:55:04;;;;;;;10.85;5.75;;;;;;;2.98;98.36;100164.72;1808973;79;21029;-69
2024/04/20 02:57:32;;;;;;;14.05;6.95;;;;;;;2.96;98.39;100169.43;1809002;79;21029;-69
2024/04/20 03:00:01;;;;;;;12.78;6.50;;;;;;;2.97;98.48;100171.12;1809009;79;21045;-69
2024/04/20 03:02:30;;;;;;;15.50;6.65;;;;;;;2.96;98.46;100169.43;1808995;78;21072;-69
2024/04/20 03:04:58;;;;;;;14.25;6.67;;;;;;;2.96;98.44;100180.25;1809266;79;21049;-69
2024/04/20 03:07:27;;;;;;;14.90;6.62;;;;;;;2.95;98.39;100174.50;1809080;79;20989;-70
2024/04/20 03:09:55;;;;;;;12.73;6.78;;;;;;;2.95;98.44;100180.75;1777984;79;21033;-69
2024/04/20 03:12:23;;;;;;;14.53;6.90;;;;;;;2.94;98.36;100170.09;1809000;79;20993;-69
2024/04/20 03:14:52;;;;;;;13.35;6.47;;;;;;;2.92;98.40;100178.86;1808960;78;21065;-70
2024/04/20 03:17:20;;;;;;;15.00;7.10;;;;;;;2.91;98.43;100180.72;1808983;79;21170;-70
2024/04/20 03:19:48;;;;;;;14.30;6.85;;;;;;;2.92;98.43;100184.27;1808948;79;21483;-69
2024/04/20 03:22:16;;;;;;;13.60;6.40;;;;;;;2.91;98.42;100185.28;1809143;79;21060;-70
2024/04/20 03:24:45;;;;;;;12.05;5.90;;;;;;;2.90;98.40;100184.93;1809066;79;21005;-70
2024/04/20 03:27:13;;;;;;;13.78;6.30;;;;;;;2.86;98.40;100185.23;1808946;79;21081;-69
2024/04/20 03:29:41;;;;;;;12.23;6.42;;;;;;;2.85;98.42;100188.09;1808925;79;21495;-69
2024/04/20 03:32:09;;;;;;;11.30;6.50;;;;;;;2.84;98.46;100203.48;1809063;79;21036;-68
2024/04/20 03:34:38;;;;;;;12.43;6.33;;;;;;;2.84;98.41;100202.13;1809039;79;21033;-69
2024/04/20 03:37:08;;;;;;;11.33;6.08;;;;;;;2.84;98.44;100201.28;1808934;78;21080;-71
2024/04/20 03:39:36;;;;;;;8.75;5.87;;;;;;;2.84;98.54;100203.48;1811583;79;21048;-70
2024/04/20 03:42:05;;;;;;;10.32;6.15;;;;;;;2.86;98.62;100200.12;1812564;79;21032;-69
2024/04/20 03:44:33;;;;;;;12.13;5.62;;;;;;;2.88;98.62;100200.47;1812522;79;21025;-70
2024/04/20 03:47:02;;;;;;;10.58;6.20;;;;;;;2.90;98.66;100205.22;1812528;79;21052;-69
2024/04/20 03:49:30;;;;;;;10.38;6.00;;;;;;;2.88;98.53;100201.82;1812674;79;21053;-69
2024/04/20 03:51:59;;;;;;;11.05;5.92;;;;;;;2.90;98.62;100206.08;1812593;79;21017;-69
2024/04/20 03:54:27;;;;;;;11.85;6.35;;;;;;;2.92;98.69;100203.22;1812509;79;21056;-70
2024/04/20 03:56:55;;;;;;;11.45;6.62;;;;;;;2.95;98.84;100203.76;1812654;79;21112;-73
2024/04/20 03:59:23;;;;;;;11.60;6.87;;;;;;;2.97;98.84;100204.45;1812553;79;21025;-70
2024/04/20 04:01:52;;;;;;;11.12;6.70;;;;;;;3.03;99.00;100205.70;1812512;79;21053;-69
2024/04/20 04:04:20;;;;;;;14.70;6.70;;;;;;;3.10;99.21;100214.90;1812525;79;21507;-68
2024/04/20 04:06:48;;;;;;;16.55;7.33;;;;;;;3.15;99.21;100212.58;1812496;79;21084;-69
2024/04/20 04:09:16;;;;;;;14.00;7.20;;;;;;;3.20;99.28;100207.55;1812491;79;21434;-69
2024/04/20 04:11:45;;;;;;;13.80;7.37;;;;;;;3.22;99.20;100213.66;1812731;79;21456;-70
2024/04/20 04:14:13;;;;;;;13.72;7.42;;;;;;;3.29;99.27;100217.48;1792294;79;21017;-70
2024/04/20 04:16:41;;;;;;;18.32;8.40;;;;;;;3.32;99.24;100213.61;1812608;79;21033;-69
2024/04/20 04:19:10;;;;;;;14.00;7.37;;;;;;;3.38;99.44;100219.25;1812648;79;21029;-69
2024/04/20 04:21:38;;;;;;;13.93;7.62;;;;;;;3.45;99.48;100223.04;1812491;79;21021;-68
2024/04/20 04:24:07;;;;;;;16.02;9.50;;;;;;;3.50;99.45;100232.90;1812773;79;21021;-69
2024/04/20 04:26:36;;;;;;;18.48;7.47;;;;;;;3.57;99.45;100233.63;1812576;79;20969;-68
2024/04/20 04:29:05;;;;;;;13.40;6.83;;;;;;;3.64;99.38;100231.98;1812586;79;20993;-71
2024/04/20 04:31:33;;;;;;;12.95;6.53;;;;;;;3.71;99.39;100227.14;1812819;79;21025;-69
2024/04/20 04:34:02;;;;;;;11.95;6.33;;;;;;;3.78;99.29;100230.91;1812701;79;21052;-70
2024/04/20 04:36:30;;;;;;;11.10;6.45;;;;;;;3.86;99.27;100242.31;1812506;79;21145;-71
2024/04/20 04:39:00;;;;;;;11.55;5.58;;;;;;;3.93;99.06;100247.98;1802847;79;21061;-69
2024/04/20 04:41:29;;;;;;;9.28;5.67;;;;;;;3.99;98.84;100248.70;1787486;79;21499;-69
2024/04/20 04:43:57;;;;;;;11.10;5.72;;;;;;;4.05;98.67;100250.27;1787569;80;21026;-69
2024/04/20 04:46:25;;;;;;;11.10;5.90;;;;;;;4.13;98.55;100251.68;1787468;79;21517;-69
2024/04/20 04:48:53;;;;;;;9.68;5.58;;;;;;;4.24;98.47;100253.77;1765730;79;21496;-69
2024/04/20 04:51:22;;;;;;;8.13;4.97;;;;;;;4.32;98.27;100255.17;1787616;80;21351;-69
2024/04/20 04:53:51;;;;;;;9.23;5.12;;;;;;;4.40;98.11;100258.78;1787512;79;20982;-68
2024/04/20 04:56:19;;;;;;;9.75;5.30;;;;;;;4.48;97.80;100262.55;1787479;80;21048;-70
2024/04/20 04:58:48;;;;;;;10.85;5.30;;;;;;;4.56;97.54;100260.75;1787416;80;21010;-69
2024/04/20 05:01:17;;;;;;;10.13;5.30;;;;;;;4.63;97.16;100260.45;1787152;80;21045;-70
2024/04/20 05:03:45;;;;;;;8.53;5.67;;;;;;;4.69;96.84;100269.30;1787479;80;21014;-69
2024/04/20 05:06:14;;;;;;;10.50;5.17;;;;;;;4.77;96.62;100267.97;1787607;80;20986;-69
2024/04/20 05:08:42;;;;;;;11.38;5.72;;;;;;;4.83;96.23;100268.33;1787682;79;21061;-68
2024/04/20 05:11:10;;;;;;;8.35;5.08;;;;;;;4.90;95.92;100266.66;1787461;80;20994;-70
2024/04/20 05:13:39;;;;;;;8.78;4.67;;;;;;;4.96;95.55;100271.42;1787499;80;21061;-68
2024/04/20 05:16:07;;;;;;;8.18;4.70;;;;;;;5.03;95.23;100279.25;1765411;80;21101;-70
2024/04/20 05:18:35;;;;;;;7.35;4.83;;;;;;;5.10;94.90;100278.94;1787483;79;21065;-69
2024/04/20 05:21:04;;;;;;;10.82;5.92;;;;;;;5.17;94.65;100283.20;1787408;79;21100;-69
2024/04/20 05:23:33;;;;;;;13.40;5.95;;;;;;;5.26;94.39;100291.23;1787296;80;21073;-69
2024/04/20 05:26:02;;;;;;;21.27;11.05;;;;;;;5.30;94.07;100287.16;1787546;79;21021;-70
2024/04/20 05:28:32;;;;;;;10.65;5.97;;;;;;;5.36;93.77;100290.57;1787291;79;21041;-69
2024/04/20 05:31:01;;;;;;;9.15;5.70;;;;;;;5.42;93.45;100287.70;1786932;80;20970;-70
2024/04/20 05:33:31;;;;;;;10.90;5.75;;;;;;;5.49;93.13;100289.23;1787673;79;20986;-69
2024/04/20 05:36:04;;;;;;;11.75;6.10;;;;;;;5.53;92.85;100285.16;1787361;80;20978;-70
2024/04/20 05:38:33;;;;;;;8.35;4.97;;;;;;;5.60;92.68;100290.27;1787494;79;20994;-70
2024/04/20 05:41:05;;;;;;;8.45;4.85;;;;;;;5.66;92.47;100293.67;1787295;80;20998;-70
2024/04/20 05:43:33;;;;;;;9.08;5.30;;;;;;;5.71;92.11;100294.02;1787575;79;21002;-69
2024/04/20 05:46:01;;;;;;;10.63;5.55;;;;;;;5.78;91.75;100288.75;1787768;79;21042;-71
2024/04/20 05:48:32;;;;;;;10.00;5.60;;;;;;;5.83;91.41;100287.22;1787709;80;21053;-70
2024/04/20 05:51:01;;;;;;;12.47;5.62;;;;;;;5.89;91.20;100289.32;1787450;80;21018;-70
2024/04/20 05:53:30;;;;;;;11.03;5.45;;;;;;;5.95;90.89;100294.59;1787448;79;21029;-69
2024/04/20 05:56:00;;;;;;;11.97;5.92;;;;;;;5.98;90.56;100293.73;1787535;80;20998;-70
2024/04/20 05:58:29;;;;;;;13.75;6.95;;;;;;;6.05;90.30;100304.78;1787600;80;20997;-71
2024/04/20 06:00:58;;;;;;;14.05;6.90;;;;;;;6.09;89.87;100303.93;1787646;79;21030;-70
2024/04/20 06:03:26;;;;;;;14.78;6.75;;;;;;;6.13;89.67;100303.41;1787399;80;21021;-68
2024/04/20 06:05:56;;;;;;;17.17;7.10;;;;;;;6.18;89.46;100315.14;1787419;79;20997;-72
2024/04/20 06:08:24;;;;;;;17.20;7.55;;;;;;;6.22;89.30;100315.14;1787578;79;21037;-70
2024/04/20 06:10:55;;;;;;;17.55;7.50;;;;;;;6.26;89.14;100312.41;1787479;80;21069;-69
2024/04/20 06:13:23;;;;;;;14.18;6.65;;;;;;;6.31;88.99;100310.88;1787615;80;21622;-70
2024/04/20 06:15:51;;;;;;;13.10;6.12;;;;;;;6.37;88.73;100317.49;1787629;80;21026;-70
2024/04/20 06:18:20;;;;;;;18.27;6.40;;;;;;;6.42;88.56;100319.19;1787566;80;21041;-70
2024/04/20 06:20:52;;;;;;;13.32;6.75;;;;;;;6.48;88.02;100317.64;1787456;79;21484;-70
2024/04/20 06:23:21;;;;;;;12.58;6.58;;;;;;;6.54;87.66;100319.19;1787462;79;21462;-69
2024/04/20 06:25:49;;;;;;;13.03;6.72;;;;;;;6.60;87.49;100317.65;1787420;80;21453;-70
2024/04/20 06:28:17;;;;;;;12.30;5.87;;;;;;;6.65;87.29;100322.05;1787479;80;20978;-70
2024/04/20 06:30:46;;;;;;;12.07;6.75;;;;;;;6.72;86.90;100322.20;1787437;80;21513;-70
2024/04/20 06:33:15;;;;;;;12.30;7.30;;;;;;;6.79;86.61;100323.20;1787461;79;21025;-70
2024/04/20 06:35:43;;;;;;;11.35;6.20;;;;;;;6.85;86.54;100320.62;1787361;79;21030;-69
2024/04/20 06:38:11;;;;;;;15.95;6.22;;;;;;;6.94;86.36;100318.72;1787626;79;21061;-69
2024/04/20 06:40:40;;;;;;;10.53;4.92;;;;;;;7.01;86.06;100323.80;1795666;79;21069;-70
2024/04/20 06:43:08;;;;;;;10.93;5.30;;;;;;;7.11;85.09;100312.17;1798154;80;21467;-71
2024/04/20 06:45:37;;;;;;;10.15;4.87;;;;;;;7.24;84.11;100320.66;1798055;80;21433;-70
2024/04/20 06:48:06;;;;;;;11.35;4.37;;;;;;;7.40;83.48;100320.23;1797970;79;21465;-68
2024/04/20 06:50:37;;;;;;;7.85;4.37;;;;;;;7.59;80.87;100322.50;1798392;79;21033;-70
2024/04/20 06:53:08;;;;;;;8.23;4.37;;;;;;;7.87;79.61;100326.42;1797943;80;21009;-71
2024/04/20 06:55:36;;;;;;;9.18;4.03;;;;;;;8.25;77.40;100320.98;1797990;80;20986;-70
2024/04/20 06:58:05;;;;;;;8.53;4.30;;;;;;;8.67;75.09;100333.26;1776057;80;21013;-69
2024/04/20 07:00:34;;;;;;;7.20;3.80;;;;;;;9.16;73.82;100322.63;1776209;80;21030;-70
2024/04/20 07:03:03;;;;;;;16.42;3.80;;;;;;;9.73;71.82;100321.31;1798075;79;21041;-72
2024/04/20 07:05:32;;;;;;;9.13;4.22;;;;;;;10.35;70.94;100313.84;1798055;80;20997;-70
2024/04/20 07:08:00;;;;;;;9.38;4.28;;;;;;;10.89;68.37;100317.30;1798134;79;21025;-71
2024/04/20 07:10:29;;;;;;;9.08;4.22;;;;;;;11.32;66.27;100316.59;1798044;80;21002;-72
2024/04/20 07:12:58;;;;;;;14.07;3.98;;;;;;;11.73;64.65;100309.69;1798125;80;21057;-72
2024/04/20 07:15:26;;;;;;;11.75;4.20;;;;;;;12.18;63.00;100310.00;1798079;80;20990;-70
2024/04/20 07:17:55;;;;;;;6.92;3.30;;;;;;;12.59;61.08;100307.59;1798127;80;21445;-70
2024/04/20 07:20:23;;;;;;;6.80;2.83;;;;;;;12.95;58.84;100309.84;1798118;80;21447;-72
2024/04/20 07:22:52;;;;;;;4.83;2.80;;;;;;;13.25;57.32;100322.09;1798080;79;21056;-71
2024/04/20 07:25:21;;;;;;;8.08;3.08;;;;;;;13.56;55.98;100321.32;1798092;79;21061;-71
2024/04/20 07:27:51;;;;;;;5.85;2.45;;;;;;;13.87;55.96;100325.21;1798326;80;21053;-71
2024/04/20 07:30:20;;;;;;;4.65;2.50;;;;;;;14.16;54.34;100319.08;1798063;79;21049;-72
2024/04/20 07:32:48;;;;;;;3.65;2.10;;;;;;;14.43;53.33;100323.06;1798076;80;21465;-72
2024/04/20 07:35:17;;;;;;;17.12;3.70;;;;;;;14.66;51.18;100327.95;1798142;79;21029;-72
2024/04/20 07:37:45;;;;;;;5.72;2.87;;;;;;;14.81;51.14;100322.39;1798089;80;21158;-70
2024/04/20 07:40:14;;;;;;;3.45;2.40;;;;;;;15.00;49.26;100322.45;1793729;79;21026;-72
2024/04/20 07:42:43;;;;;;;5.90;2.40;;;;;;;15.13;49.37;100319.00;1787573;79;21037;-73
2024/04/20 07:45:11;;;;;;;3.10;1.85;;;;;;;15.37;48.31;100310.33;1787320;80;21286;-72
2024/04/20 07:47:40;;;;;;;8.05;2.12;;;;;;;15.59;45.75;100301.59;1787288;79;21018;-71
2024/04/20 07:50:12;;;;;;;3.92;2.20;;;;;;;15.73;44.91;100303.12;1787485;79;21006;-71
2024/04/20 07:52:39;;;;;;;2.30;1.85;;;;;;;15.86;45.23;100302.94;1787460;79;21013;-72
2024/04/20 07:55:11;;;;;;;3.77;1.80;;;;;;;16.04;43.05;100309.78;1766040;80;21030;-72
2024/04/20 07:57:40;;;;;;;10.58;2.55;;;;;;;16.17;42.94;100315.11;1787579;79;20998;-74
2024/04/20 08:00:10;;;;;;;7.35;2.87;;;;;;;16.28;43.35;100310.72;1756479;80;21050;-73
2024/04/20 08:02:40;;;;;;;5.50;2.20;;;;;;;16.39;42.75;100307.12;1723135;82;21494;-78
2024/04/20 08:05:08;;;;;;;9.45;2.50;;;;;;;16.30;40.79;100315.47;1724358;81;21060;-75
2024/04/20 08:07:37;;;;;;;4.78;2.77;;;;;;;16.20;44.20;100312.95;1767334;81;21043;-75
2024/04/20 08:10:08;;;;;;;5.03;2.50;;;;;;;16.32;46.19;100318.00;1751593;82;21509;-76
2024/04/20 08:12:36;;;;;;;3.47;2.20;;;;;;;16.49;45.12;100308.77;1751943;82;21460;-75
2024/04/20 08:15:05;;;;;;;3.60;2.00;;;;;;;16.72;43.22;100316.27;1751541;82;21039;-74
2024/04/20 08:17:34;;;;;;;4.08;2.10;;;;;;;16.86;43.10;100312.72;1751422;82;20988;-76
2024/04/20 08:20:04;;;;;;;12.65;3.00;;;;;;;17.00;42.23;100317.50;1740875;81;21065;-73
2024/04/20 08:22:37;;;;;;;2.20;1.65;;;;;;;17.03;41.07;100314.25;1733018;81;21042;-73
2024/04/20 08:25:06;;;;;;;3.85;1.98;;;;;;;17.10;41.55;100315.80;1740789;82;21422;-71
2024/04/20 08:27:35;;;;;;;5.25;1.98;;;;;;;17.21;42.21;100316.86;1732879;82;21081;-74
2024/04/20 08:30:07;;;;;;;4.70;2.00;;;;;;;17.35;40.50;100311.36;1740549;82;21485;-73
2024/04/20 08:32:36;;;;;;;1.95;1.67;;;;;;;17.41;40.59;100320.08;1732744;81;21129;-73
2024/04/20 08:35:05;;;;;;;2.98;1.77;;;;;;;17.43;38.96;100302.67;1746586;82;21047;-70
2024/04/20 08:37:36;;;;;;;3.08;1.47;;;;;;;17.27;38.30;100305.36;1748831;82;21067;-71
2024/04/20 08:40:05;;;;;;;9.08;2.40;;;;;;;17.25;37.57;100301.45;1745627;82;21052;-75
2024/04/20 08:42:37;;;;;;;5.83;2.92;;;;;;;17.19;37.08;100305.20;1761506;81;21082;-70
2024/04/20 08:45:09;;;;;;;5.10;2.47;;;;;;;17.29;38.06;100305.41;1761376;81;21054;-69
2024/04/20 08:47:38;;;;;;;3.92;2.58;;;;;;;17.45;38.27;100306.58;1765560;79;21023;-68
2024/04/20 08:50:07;;;;;;;5.33;2.30;;;;;;;17.67;37.47;100322.05;1718716;82;21092;-73
2024/04/20 08:52:35;;;;;;;4.80;2.30;;;;;;;17.73;37.56;100325.22;1766641;81;20991;-72
2024/04/20 08:55:05;;;;;;;4.47;1.98;;;;;;;17.78;38.66;100314.23;1776558;81;21031;-67
2024/04/20 08:57:37;;;;;;;3.42;1.80;;;;;;;17.90;38.13;100308.64;1763513;80;21517;-66
2024/04/20 09:00:05;;;;;;;3.72;2.05;;;;;;;17.82;36.90;100300.18;1718883;82;21009;-71
2024/04/20 09:02:35;;;;;;;4.12;2.00;;;;;;;17.59;36.61;100297.47;1758966;81;21052;-71
2024/04/20 09:05:05;;;;;;;5.25;2.00;;;;;;;17.36;37.71;100289.50;1738266;81;21071;-68
2024/04/20 09:07:34;;;;;;;6.75;2.35;;;;;;;17.16;36.95;100289.06;1753255;82;21067;-74
2024/04/20 09:10:03;;;;;;;4.95;1.92;;;;;;;16.99;37.40;100278.45;1756532;81;21043;-73
2024/04/20 09:12:33;;;;;;;4.47;2.02;;;;;;;16.91;37.22;100294.87;1756558;81;21022;-70
2024/04/20 09:15:09;;;;;;;2.33;1.62;;;;;;;16.76;37.08;100278.73;1756327;82;21494;-74
2024/04/20 09:17:38;;;;;;;4.28;1.87;;;;;;;16.50;37.34;100275.03;1756144;81;21076;-72
2024/04/20 09:20:07;;;;;;;2.80;1.90;;;;;;;16.25;37.04;100277.14;1756368;81;21116;-70
2024/04/20 09:22:36;;;;;;;2.37;2.00;;;;;;;16.04;37.67;100277.16;1758826;81;21462;-73
2024/04/20 09:25:06;;;;;;;4.15;2.55;;;;;;;15.85;37.97;100272.23;1785615;80;21122;-75
2024/04/20 09:27:35;;;;;;;4.45;2.45;;;;;;;15.64;37.79;100270.84;1786196;80;21708;-75
2024/04/20 09:30:06;;;;;;;4.33;3.20;;;;;;;15.44;38.70;100274.35;1786219;80;21089;-74
2024/04/20 09:32:39;;;;;;;2.87;1.70;;;;;;;15.32;37.89;100261.88;1754617;80;21063;-73
2024/04/20 09:35:07;;;;;;;3.02;1.50;;;;;;;15.18;38.10;100272.77;1785754;80;21055;-74
2024/04/20 09:37:36;;;;;;;3.00;1.95;;;;;;;15.07;38.21;100275.77;1786317;80;21016;-73
2024/04/20 09:40:06;;;;;;;2.55;1.60;;;;;;;14.93;38.54;100281.09;1786343;80;21019;-74
2024/04/20 09:42:34;;;;;;;2.70;2.10;;;;;;;14.80;38.79;100280.70;1785985;80;21462;-72
2024/04/20 09:45:04;;;;;;;3.55;2.20;;;;;;;14.69;39.19;100278.70;1786010;80;21042;-74
2024/04/20 09:47:38;;;;;;;6.50;2.42;;;;;;;14.66;40.53;100281.08;1786140;80;21047;-76
2024/04/20 09:50:13;;;;;;;6.62;2.10;;;;;;;14.70;40.26;100269.89;1786123;80;21147;-76
2024/04/20 09:52:58;;;;;;;3.00;1.60;;;;;;;14.66;40.04;100261.23;1786079;80;21023;-71
2024/04/20 09:55:31;;;;;;;3.27;1.40;;;;;;;14.63;39.93;100272.72;1750074;80;21007;-72
2024/04/20 09:58:03;;;;;;;4.50;1.72;;;;;;;14.49;40.26;100271.16;1715039;82;21061;-73
2024/04/20 10:00:34;;;;;;;3.72;1.30;;;;;;;14.36;39.82;100269.34;1745841;82;21061;-74
2024/04/20 10:03:07;;;;;;;4.80;1.52;;;;;;;14.25;39.87;100272.27;1745861;82;21022;-75
2024/04/20 10:05:39;;;;;;;1.92;1.40;;;;;;;14.19;40.04;100261.30;1745790;82;21026;-73
2024/04/20 10:08:11;;;;;;;2.30;1.40;;;;;;;14.10;39.99;100256.59;1746140;82;21386;-72
2024/04/20 10:10:40;;;;;;;4.53;1.52;;;;;;;14.08;40.44;100258.73;1745806;81;21045;-73
2024/04/20 10:13:09;;;;;;;3.98;1.67;;;;;;;14.08;40.91;100251.84;1745983;82;21006;-75
2024/04/20 10:15:38;;;;;;;2.90;1.82;;;;;;;14.13;41.31;100248.41;1745880;82;21080;-73
2024/04/20 10:18:07;;;;;;;2.77;1.35;;;;;;;14.19;40.62;100251.12;1745654;82;21025;-74
2024/04/20 10:20:37;;;;;;;2.60;1.45;;;;;;;14.27;39.19;100248.08;1715352;82;20982;-76
2024/04/20 10:23:17;;;;;;;3.52;1.90;;;;;;;14.29;40.00;100255.58;1745932;82;20998;-73
2024/04/20 10:25:56;;;;;;;3.83;1.77;;;;;;;14.33;39.92;100258.77;1745999;82;21438;-74
2024/04/20 10:28:32;;;;;;;3.08;1.50;;;;;;;14.38;40.15;100259.47;1745894;82;21026;-76
2024/04/20 10:31:02;;;;;;;2.92;1.60;;;;;;;14.43;40.12;100262.42;1746244;82;21040;-74
2024/04/20 10:33:36;;;;;;;2.98;1.80;;;;;;;14.45;39.55;100265.26;1745797;82;21077;-71
2024/04/20 10:36:08;;;;;;;4.10;1.60;;;;;;;14.46;39.87;100266.10;1745930;81;21466;-74
2024/04/20 10:38:37;;;;;;;4.05;1.52;;;;;;;14.42;39.81;100263.45;1745918;82;21002;-75
2024/04/20 10:41:16;;;;;;;2.60;1.40;;;;;;;14.38;40.88;100269.11;1737112;82;21130;-68
2024/04/20 10:43:46;;;;;;;4.28;1.85;;;;;;;14.33;39.98;100261.52;1723154;83;21094;-73
2024/04/20 10:46:20;;;;;;;2.83;1.92;;;;;;;14.34;40.72;100265.13;1723000;83;21374;-72
2024/04/20 10:48:55;;;;;;;3.08;1.37;;;;;;;14.35;40.27;100267.65;1722963;83;21061;-71
2024/04/20 10:51:26;;;;;;;5.30;1.42;;;;;;;14.34;39.52;100267.34;1722749;83;21574;-70
2024/04/20 10:53:59;;;;;;;1.72;1.10;;;;;;;14.31;39.45;100267.80;1723411;82;21070;-70
2024/04/20 10:56:29;;;;;;;3.83;1.30;;;;;;;14.26;39.29;100261.55;1722358;83;21016;-71
2024/04/20 10:58:58;;;;;;;2.65;1.30;;;;;;;14.32;40.12;100253.48;1723028;83;21017;-71
2024/04/20 11:01:27;;;;;;;4.37;1.52;;;;;;;14.37;40.00;100259.16;1733044;81;21014;-73
2024/04/20 11:03:57;;;;;;;1.17;1.07;;;;;;;14.32;39.30;100258.98;1740499;82;21072;-71
2024/04/20 11:06:25;;;;;;;2.90;1.32;;;;;;;14.28;39.85;100256.66;1732996;82;21005;-71
2024/04/20 11:08:54;;;;;;;1.75;1.42;;;;;;;14.26;39.91;100250.52;1740504;82;21529;-75
2024/04/20 11:11:22;;;;;;;1.70;1.20;;;;;;;14.27;39.92;100248.61;1732782;81;21550;-72
2024/04/20 11:13:59;;;;;;;2.60;1.30;;;;;;;14.28;40.17;100237.36;1740734;82;21029;-70
2024/04/20 11:16:28;;;;;;;2.47;1.32;;;;;;;14.32;39.64;100243.83;1732928;81;21061;-70
2024/04/20 11:18:57;;;;;;;2.17;1.20;;;;;;;14.36;39.74;100240.40;1740580;82;21025;-71
2024/04/20 11:21:26;;;;;;;2.08;1.22;;;;;;;14.37;40.15;100242.62;1732996;81;21013;-71
2024/04/20 11:23:55;;;;;;;4.60;1.57;;;;;;;14.36;39.48;100240.93;1740477;81;21057;-71
2024/04/20 11:26:25;;;;;;;2.35;1.32;;;;;;;14.28;40.29;100234.60;1732772;81;21018;-70
2024/04/20 11:28:53;;;;;;;2.40;1.65;;;;;;;14.25;39.84;100241.95;1740278;82;21096;-70
2024/04/20 11:31:22;;;;;;;3.27;1.80;;;;;;;14.23;39.99;100243.24;1714469;83;21093;-71
2024/04/20 11:33:51;;;;;;;1.90;1.35;;;;;;;14.19;40.12;100234.58;1721948;82;21457;-72
2024/04/20 11:36:19;;;;;;;4.67;1.70;;;;;;;14.18;40.36;100237.03;1732896;83;21737;-70